Terminal Aerodrome Forecast
Issued by NWS

Home | Current Version | Previous Version | Text Only | Print | Product List | Glossary On
Versions: 1 2 3 4 5 6 7 8 9 10 11 12 13 14 15 16 17 18 19 20 21 22 23 24 25 26 27 28 29 30 31
000
FTUS43 KDDC 220524
TAFGCK
TAF
KGCK 220524Z 2206/2306 26006KT P6SM SCT200
     FM220900 31013G20KT P6SM SCT100
     FM221600 32022G29KT P6SM SCT040
     FM230000 31010KT P6SM SCT100=

USA.gov is the U.S. government's official web portal to all federal, state and local government web resources and services.